sensor_id;sensor_type;location;lat;lon;timestamp;pressure;altitude;pressure_sealevel;temperature;humidity
52949;BME280;38812;50.942;3.644;2023-02-02T00:01:20;102448.75;;;7.84;100.00
52949;BME280;38812;50.942;3.644;2023-02-02T00:03:46;102452.25;;;7.86;100.00
52949;BME280;38812;50.942;3.644;2023-02-02T00:06:13;102444.34;;;7.83;100.00
52949;BME280;38812;50.942;3.644;2023-02-02T00:08:38;102446.28;;;7.94;100.00
52949;BME280;38812;50.942;3.644;2023-02-02T00:11:04;102453.19;;;7.90;100.00
52949;BME280;38812;50.942;3.644;2023-02-02T00:13:30;102433.09;;;7.87;100.00
52949;BME280;38812;50.942;3.644;2023-02-02T00:15:55;102452.50;;;8.00;100.00
52949;BME280;38812;50.942;3.644;2023-02-02T00:18:21;102441.88;;;7.91;100.00
52949;BME280;38812;50.942;3.644;2023-02-02T00:20:46;102448.94;;;7.97;100.00
52949;BME280;38812;50.942;3.644;2023-02-02T00:23:15;102443.69;;;7.95;100.00
52949;BME280;38812;50.942;3.644;2023-02-02T00:25:41;102433.16;;;7.90;100.00
52949;BME280;38812;50.942;3.644;2023-02-02T00:28:06;102441.84;;;7.89;100.00
52949;BME280;38812;50.942;3.644;2023-02-02T00:30:32;102431.41;;;7.91;100.00
52949;BME280;38812;50.942;3.644;2023-02-02T00:32:57;102432.97;;;7.81;100.00
52949;BME280;38812;50.942;3.644;2023-02-02T00:35:22;102433.06;;;7.86;100.00
52949;BME280;38812;50.942;3.644;2023-02-02T00:37:48;102440.94;;;7.87;100.00
52949;BME280;38812;50.942;3.644;2023-02-02T00:40:13;102439.16;;;7.85;100.00
52949;BME280;38812;50.942;3.644;2023-02-02T00:42:39;102437.47;;;7.88;100.00
52949;BME280;38812;50.942;3.644;2023-02-02T00:45:04;102442.69;;;7.87;100.00
52949;BME280;38812;50.942;3.644;2023-02-02T00:47:47;102441.75;;;7.83;100.00
52949;BME280;38812;50.942;3.644;2023-02-02T00:50:15;102436.44;;;7.77;100.00
52949;BME280;38812;50.942;3.644;2023-02-02T00:52:41;102446.09;;;7.83;100.00
52949;BME280;38812;50.942;3.644;2023-02-02T00:55:08;102421.53;;;7.72;100.00
52949;BME280;38812;50.942;3.644;2023-02-02T00:57:33;102426.69;;;7.69;100.00
52949;BME280;38812;50.942;3.644;2023-02-02T00:59:59;102429.41;;;7.73;100.00
52949;BME280;38812;50.942;3.644;2023-02-02T01:02:24;102424.16;;;7.73;100.00
52949;BME280;38812;50.942;3.644;2023-02-02T01:04:50;102434.72;;;7.79;100.00
52949;BME280;38812;50.942;3.644;2023-02-02T01:07:16;102432.88;;;7.72;100.00
52949;BME280;38812;50.942;3.644;2023-02-02T01:09:41;102433.81;;;7.77;100.00
52949;BME280;38812;50.942;3.644;2023-02-02T01:12:07;102441.69;;;7.77;100.00
52949;BME280;38812;50.942;3.644;2023-02-02T01:14:32;102424.00;;;7.64;100.00
52949;BME280;38812;50.942;3.644;2023-02-02T01:16:57;102436.28;;;7.68;100.00
52949;BME280;38812;50.942;3.644;2023-02-02T01:19:23;102434.50;;;7.66;100.00
52949;BME280;38812;50.942;3.644;2023-02-02T01:21:48;102436.28;;;7.68;100.00
52949;BME280;38812;50.942;3.644;2023-02-02T01:24:15;102426.63;;;7.64;100.00
52949;BME280;38812;50.942;3.644;2023-02-02T01:26:40;102434.56;;;7.70;100.00
52949;BME280;38812;50.942;3.644;2023-02-02T01:29:06;102431.97;;;7.72;100.00
52949;BME280;38812;50.942;3.644;2023-02-02T01:31:31;102432.88;;;7.72;100.00
52949;BME280;38812;50.942;3.644;2023-02-02T01:33:56;102446.84;;;7.74;100.00
52949;BME280;38812;50.942;3.644;2023-02-02T01:36:23;102443.44;;;7.78;100.00
52949;BME280;38812;50.942;3.644;2023-02-02T01:38:49;102440.75;;;7.74;100.00
52949;BME280;38812;50.942;3.644;2023-02-02T01:41:17;102443.44;;;7.81;100.00
52949;BME280;38812;50.942;3.644;2023-02-02T01:46:13;102446.91;;;7.80;100.00
52949;BME280;38812;50.942;3.644;2023-02-02T01:48:41;102451.31;;;7.81;100.00
52949;BME280;38812;50.942;3.644;2023-02-02T01:51:20;102451.19;;;7.74;100.00
52949;BME280;38812;50.942;3.644;2023-02-02T01:53:48;102450.38;;;7.76;100.00
52949;BME280;38812;50.942;3.644;2023-02-02T01:56:25;102448.69;;;7.81;100.00
52949;BME280;38812;50.942;3.644;2023-02-02T01:58:53;102455.66;;;7.79;100.00
52949;BME280;38812;50.942;3.644;2023-02-02T02:01:18;102435.44;;;7.69;100.00
52949;BME280;38812;50.942;3.644;2023-02-02T02:03:43;102451.28;;;7.80;100.00
52949;BME280;38812;50.942;3.644;2023-02-02T02:06:16;102450.41;;;7.78;100.00
52949;BME280;38812;50.942;3.644;2023-02-02T02:09:02;102449.53;;;7.79;100.00
52949;BME280;38812;50.942;3.644;2023-02-02T02:11:29;102448.66;;;7.78;100.00
52949;BME280;38812;50.942;3.644;2023-02-02T02:13:56;102442.50;;;7.75;100.00
52949;BME280;38812;50.942;3.644;2023-02-02T02:17:11;102449.44;;;7.73;100.00
52949;BME280;38812;50.942;3.644;2023-02-02T02:22:58;102445.19;;;7.79;100.00
52949;BME280;38812;50.942;3.644;2023-02-02T02:26:09;102450.31;;;7.73;100.00
52949;BME280;38812;50.942;3.644;2023-02-02T02:34:22;102446.69;;;7.65;100.00
52949;BME280;38812;50.942;3.644;2023-02-02T02:36:56;102447.50;;;7.61;100.00
52949;BME280;38812;50.942;3.644;2023-02-02T02:39:32;102453.56;;;7.57;100.00
52949;BME280;38812;50.942;3.644;2023-02-02T02:42:07;102463.13;;;7.56;100.00
52949;BME280;38812;50.942;3.644;2023-02-02T02:44:35;102452.75;;;7.63;100.00
52949;BME280;38812;50.942;3.644;2023-02-02T02:47:01;102452.59;;;7.53;100.00
52949;BME280;38812;50.942;3.644;2023-02-02T02:49:27;102456.06;;;7.51;100.00
52949;BME280;38812;50.942;3.644;2023-02-02T02:51:53;102442.03;;;7.47;100.00
52949;BME280;38812;50.942;3.644;2023-02-02T02:54:42;102455.19;;;7.52;100.00
52949;BME280;38812;50.942;3.644;2023-02-02T03:07:58;102472.78;;;7.62;100.00
52949;BME280;38812;50.942;3.644;2023-02-02T03:10:28;102462.28;;;7.59;100.00
52949;BME280;38812;50.942;3.644;2023-02-02T03:12:55;102463.13;;;7.58;100.00
52949;BME280;38812;50.942;3.644;2023-02-02T03:15:20;102470.03;;;7.53;100.00
52949;BME280;38812;50.942;3.644;2023-02-02T03:17:47;102448.94;;;7.44;100.00
52949;BME280;38812;50.942;3.644;2023-02-02T03:20:14;102460.31;;;7.46;100.00
52949;BME280;38812;50.942;3.644;2023-02-02T03:22:40;102466.53;;;7.52;100.00
52949;BME280;38812;50.942;3.644;2023-02-02T03:25:06;102457.63;;;7.43;100.00
52949;BME280;38812;50.942;3.644;2023-02-02T03:27:32;102458.59;;;7.48;100.00
52949;BME280;38812;50.942;3.644;2023-02-02T03:29:57;102451.78;;;7.56;100.00
52949;BME280;38812;50.942;3.644;2023-02-02T03:32:23;102455.13;;;7.49;100.00
52949;BME280;38812;50.942;3.644;2023-02-02T03:34:49;102450.03;;;7.55;100.00
52949;BME280;38812;50.942;3.644;2023-02-02T03:37:14;102451.72;;;7.53;100.00
52949;BME280;38812;50.942;3.644;2023-02-02T03:39:39;102441.25;;;7.51;100.00
52949;BME280;38812;50.942;3.644;2023-02-02T03:42:05;102455.25;;;7.55;100.00
52949;BME280;38812;50.942;3.644;2023-02-02T03:44:30;102456.09;;;7.54;100.00
52949;BME280;38812;50.942;3.644;2023-02-02T03:46:56;102449.84;;;7.46;100.00
52949;BME280;38812;50.942;3.644;2023-02-02T03:49:21;102457.72;;;7.47;100.00
52949;BME280;38812;50.942;3.644;2023-02-02T03:51:46;102456.84;;;7.47;100.00
52949;BME280;38812;50.942;3.644;2023-02-02T03:54:13;102459.56;;;7.53;100.00
52949;BME280;38812;50.942;3.644;2023-02-02T03:56:38;102452.59;;;7.53;100.00
52949;BME280;38812;50.942;3.644;2023-02-02T03:59:04;102464.84;;;7.54;100.00
52949;BME280;38812;50.942;3.644;2023-02-02T04:01:29;102468.19;;;7.47;100.00
52949;BME280;38812;50.942;3.644;2023-02-02T04:03:56;102469.06;;;7.48;100.00
52949;BME280;38812;50.942;3.644;2023-02-02T04:06:23;102472.69;;;7.54;100.00
52949;BME280;38812;50.942;3.644;2023-02-02T04:08:48;102456.09;;;7.54;100.00
52949;BME280;38812;50.942;3.644;2023-02-02T04:11:15;102467.38;;;7.50;100.00
52949;BME280;38812;50.942;3.644;2023-02-02T04:13:40;102470.88;;;7.50;100.00
52949;BME280;38812;50.942;3.644;2023-02-02T04:16:07;102476.13;;;7.52;100.00
52949;BME280;38812;50.942;3.644;2023-02-02T04:18:33;102483.16;;;7.56;100.00
52949;BME280;38812;50.942;3.644;2023-02-02T04:20:59;102490.03;;;7.51;100.00
52949;BME280;38812;50.942;3.644;2023-02-02T04:23:26;102494.38;;;7.49;100.00
52949;BME280;38812;50.942;3.644;2023-02-02T04:25:52;102481.34;;;7.52;100.00
52949;BME280;38812;50.942;3.644;2023-02-02T04:28:17;102499.66;;;7.52;100.00
52949;BME280;38812;50.942;3.644;2023-02-02T04:30:43;102496.94;;;7.47;100.00
52949;BME280;38812;50.942;3.644;2023-02-02T04:33:08;102483.06;;;7.50;100.00
52949;BME280;38812;50.942;3.644;2023-02-02T04:35:34;102489.94;;;7.45;100.00
52949;BME280;38812;50.942;3.644;2023-02-02T04:37:59;102482.88;;;7.41;100.00
52949;BME280;38812;50.942;3.644;2023-02-02T04:40:25;102501.41;;;7.53;100.00
52949;BME280;38812;50.942;3.644;2023-02-02T04:42:50;102509.25;;;7.51;100.00
52949;BME280;38812;50.942;3.644;2023-02-02T04:45:16;102503.97;;;7.50;100.00
52949;BME280;38812;50.942;3.644;2023-02-02T04:47:41;102521.50;;;7.54;100.00
52949;BME280;38812;50.942;3.644;2023-02-02T04:50:07;102514.59;;;7.59;100.00
52949;BME280;38812;50.942;3.644;2023-02-02T04:52:32;102511.88;;;7.53;100.00
52949;BME280;38812;50.942;3.644;2023-02-02T04:54:58;102504.03;;;7.53;100.00
52949;BME280;38812;50.942;3.644;2023-02-02T04:57:24;102517.06;;;7.50;100.00
52949;BME280;38812;50.942;3.644;2023-02-02T04:59:49;102510.84;;;7.45;100.00
52949;BME280;38812;50.942;3.644;2023-02-02T05:02:15;102519.59;;;7.47;100.00
52949;BME280;38812;50.942;3.644;2023-02-02T05:04:40;102516.06;;;7.45;100.00
52949;BME280;38812;50.942;3.644;2023-02-02T05:07:05;102526.41;;;7.39;100.00
52949;BME280;38812;50.942;3.644;2023-02-02T05:09:31;102517.66;;;7.37;100.00
52949;BME280;38812;50.942;3.644;2023-02-02T05:11:56;102517.66;;;7.37;100.00
52949;BME280;38812;50.942;3.644;2023-02-02T05:14:21;102515.88;;;7.33;100.00
52949;BME280;38812;50.942;3.644;2023-02-02T05:16:47;102517.72;;;7.40;100.00
52949;BME280;38812;50.942;3.644;2023-02-02T05:19:14;102516.72;;;7.32;100.00
52949;BME280;38812;50.942;3.644;2023-02-02T05:21:44;102504.31;;;7.21;100.00
52949;BME280;38812;50.942;3.644;2023-02-02T05:24:10;102508.75;;;7.26;100.00
52949;BME280;38812;50.942;3.644;2023-02-02T05:26:36;102513.09;;;7.25;100.00
52949;BME280;38812;50.942;3.644;2023-02-02T05:29:02;102518.53;;;7.37;100.00
52949;BME280;38812;50.942;3.644;2023-02-02T05:31:28;102503.66;;;7.32;100.00
52949;BME280;38812;50.942;3.644;2023-02-02T05:33:55;102511.41;;;7.27;100.00
52949;BME280;38812;50.942;3.644;2023-02-02T05:36:20;102508.09;;;7.37;100.00
52949;BME280;38812;50.942;3.644;2023-02-02T05:38:46;102510.63;;;7.33;100.00
52949;BME280;38812;50.942;3.644;2023-02-02T05:41:11;102512.34;;;7.31;100.00
52949;BME280;38812;50.942;3.644;2023-02-02T05:43:37;102516.72;;;7.32;100.00
52949;BME280;38812;50.942;3.644;2023-02-02T05:46:02;102515.03;;;7.37;100.00
52949;BME280;38812;50.942;3.644;2023-02-02T05:48:27;102521.31;;;7.45;100.00
52949;BME280;38812;50.942;3.644;2023-02-02T05:51:05;102529.09;;;7.42;100.00
52949;BME280;38812;50.942;3.644;2023-02-02T05:53:32;102529.84;;;7.35;100.00
52949;BME280;38812;50.942;3.644;2023-02-02T05:55:57;102529.03;;;7.39;100.00
52949;BME280;38812;50.942;3.644;2023-02-02T05:58:23;102522.06;;;7.39;100.00
52949;BME280;38812;50.942;3.644;2023-02-02T06:00:48;102521.50;;;7.54;100.00
52949;BME280;38812;50.942;3.644;2023-02-02T06:03:14;102523.06;;;7.46;100.00
52949;BME280;38812;50.942;3.644;2023-02-02T06:05:39;102532.69;;;7.47;100.00
52949;BME280;38812;50.942;3.644;2023-02-02T06:08:05;102528.94;;;7.33;100.00
52949;BME280;38812;50.942;3.644;2023-02-02T06:10:30;102518.50;;;7.34;100.00
52949;BME280;38812;50.942;3.644;2023-02-02T06:12:56;102517.56;;;7.31;100.00
52949;BME280;38812;50.942;3.644;2023-02-02T06:15:22;102510.50;;;7.27;100.00
52949;BME280;38812;50.942;3.644;2023-02-02T06:17:48;102498.09;;;7.16;100.00
52949;BME280;38812;50.942;3.644;2023-02-02T06:20:14;102503.38;;;7.18;100.00
52949;BME280;38812;50.942;3.644;2023-02-02T06:22:39;102499.84;;;7.14;100.00
52949;BME280;38812;50.942;3.644;2023-02-02T06:25:05;102514.97;;;7.32;100.00
52949;BME280;38812;50.942;3.644;2023-02-02T06:27:32;102515.97;;;7.39;100.00
52949;BME280;38812;50.942;3.644;2023-02-02T06:29:58;102508.00;;;7.31;100.00
52949;BME280;38812;50.942;3.644;2023-02-02T06:32:23;102523.81;;;7.39;100.00
52949;BME280;38812;50.942;3.644;2023-02-02T06:34:48;102523.06;;;7.46;100.00
52949;BME280;38812;50.942;3.644;2023-02-02T06:37:14;102513.28;;;7.34;100.00
52949;BME280;38812;50.942;3.644;2023-02-02T06:39:39;102521.25;;;7.42;100.00
52949;BME280;38812;50.942;3.644;2023-02-02T06:42:05;102531.75;;;7.43;100.00
52949;BME280;38812;50.942;3.644;2023-02-02T06:44:30;102517.56;;;7.31;100.00
52949;BME280;38812;50.942;3.644;2023-02-02T06:46:56;102529.94;;;7.41;100.00
52949;BME280;38812;50.942;3.644;2023-02-02T06:49:21;102543.16;;;7.48;100.00
52949;BME280;38812;50.942;3.644;2023-02-02T06:51:46;102540.59;;;7.50;100.00
52949;BME280;38812;50.942;3.644;2023-02-02T06:54:13;102544.19;;;7.55;100.00
52949;BME280;38812;50.942;3.644;2023-02-02T06:56:38;102550.22;;;7.52;100.00
52949;BME280;38812;50.942;3.644;2023-02-02T06:59:04;102560.66;;;7.51;100.00
52949;BME280;38812;50.942;3.644;2023-02-02T07:01:30;102566.88;;;7.59;100.00
52949;BME280;38812;50.942;3.644;2023-02-02T07:03:55;102561.69;;;7.61;100.00
52949;BME280;38812;50.942;3.644;2023-02-02T07:06:23;102563.53;;;7.66;100.00
52949;BME280;38812;50.942;3.644;2023-02-02T07:08:49;102566.88;;;7.59;100.00
52949;BME280;38812;50.942;3.644;2023-02-02T07:11:16;102566.88;;;7.56;100.00
52949;BME280;38812;50.942;3.644;2023-02-02T07:13:45;102564.41;;;7.65;100.00
52949;BME280;38812;50.942;3.644;2023-02-02T07:16:12;102554.78;;;7.64;100.00
52949;BME280;38812;50.942;3.644;2023-02-02T07:18:38;102562.53;;;7.60;100.00
52949;BME280;38812;50.942;3.644;2023-02-02T07:21:04;102569.72;;;7.70;100.00
52949;BME280;38812;50.942;3.644;2023-02-02T07:23:31;102566.13;;;7.65;100.00
52949;BME280;38812;50.942;3.644;2023-02-02T07:26:05;102560.81;;;7.60;100.00
52949;BME280;38812;50.942;3.644;2023-02-02T07:28:30;102557.38;;;7.63;100.00
52949;BME280;38812;50.942;3.644;2023-02-02T07:30:56;102550.38;;;7.62;100.00
52949;BME280;38812;50.942;3.644;2023-02-02T07:33:22;102532.00;;;7.57;100.00
52949;BME280;38812;50.942;3.644;2023-02-02T07:35:47;102558.44;;;7.72;100.00
52949;BME280;38812;50.942;3.644;2023-02-02T07:38:12;102552.19;;;7.66;100.00
52949;BME280;38812;50.942;3.644;2023-02-02T07:40:38;102556.66;;;7.71;100.00
52949;BME280;38812;50.942;3.644;2023-02-02T07:43:03;102556.72;;;7.74;100.00
52949;BME280;38812;50.942;3.644;2023-02-02T07:45:29;102546.31;;;7.77;100.00
52949;BME280;38812;50.942;3.644;2023-02-02T07:47:58;102551.56;;;7.77;100.00
52949;BME280;38812;50.942;3.644;2023-02-02T07:50:25;102551.63;;;7.83;100.00
52949;BME280;38812;50.942;3.644;2023-02-02T07:52:51;102550.69;;;7.80;100.00
52949;BME280;38812;50.942;3.644;2023-02-02T07:55:16;102556.03;;;7.84;100.00
52949;BME280;38812;50.942;3.644;2023-02-02T07:57:42;102547.34;;;7.87;100.00
52949;BME280;38812;50.942;3.644;2023-02-02T08:00:08;102542.09;;;7.85;100.00
52949;BME280;38812;50.942;3.644;2023-02-02T08:02:34;102553.50;;;7.90;100.00
52949;BME280;38812;50.942;3.644;2023-02-02T08:04:59;102550.03;;;7.91;100.00
52949;BME280;38812;50.942;3.644;2023-02-02T08:07:24;102546.72;;;8.02;100.00
52949;BME280;38812;50.942;3.644;2023-02-02T08:09:50;102572.00;;;8.00;100.00
52949;BME280;38812;50.942;3.644;2023-02-02T08:12:16;102572.78;;;7.94;100.00
52949;BME280;38812;50.942;3.644;2023-02-02T08:14:41;102572.78;;;7.94;100.00
52949;BME280;38812;50.942;3.644;2023-02-02T08:17:07;102582.28;;;7.89;100.00
52949;BME280;38812;50.942;3.644;2023-02-02T08:19:32;102573.41;;;7.81;100.00
52949;BME280;38812;50.942;3.644;2023-02-02T08:21:57;102589.31;;;7.91;100.00
52949;BME280;38812;50.942;3.644;2023-02-02T08:24:23;102593.81;;;8.02;100.00
52949;BME280;38812;50.942;3.644;2023-02-02T08:26:48;102593.78;;;7.99;100.00
52949;BME280;38812;50.942;3.644;2023-02-02T08:29:14;102597.22;;;7.95;100.00
52949;BME280;38812;50.942;3.644;2023-02-02T08:31:42;102589.47;;;8.01;100.00
52949;BME280;38812;50.942;3.644;2023-02-02T08:34:09;102586.81;;;7.98;100.00
52949;BME280;38812;50.942;3.644;2023-02-02T08:36:34;102579.66;;;7.89;100.00
52949;BME280;38812;50.942;3.644;2023-02-02T08:39:02;102599.94;;;8.01;100.00
52949;BME280;38812;50.942;3.644;2023-02-02T08:41:27;102604.41;;;8.08;100.00
52949;BME280;38812;50.942;3.644;2023-02-02T08:43:53;102607.09;;;8.12;100.00
52949;BME280;38812;50.942;3.644;2023-02-02T08:46:19;102601.84;;;8.11;100.00
52949;BME280;38812;50.942;3.644;2023-02-02T08:48:44;102606.41;;;8.24;100.00
52949;BME280;38812;50.942;3.644;2023-02-02T08:51:11;102607.28;;;8.23;100.00
52949;BME280;38812;50.942;3.644;2023-02-02T08:53:38;102603.91;;;8.30;100.00
52949;BME280;38812;50.942;3.644;2023-02-02T08:56:18;102595.06;;;8.23;100.00
52949;BME280;38812;50.942;3.644;2023-02-02T08:58:52;102603.81;;;8.24;100.00
52949;BME280;38812;50.942;3.644;2023-02-02T09:01:21;102609.06;;;8.25;100.00
52949;BME280;38812;50.942;3.644;2023-02-02T09:03:47;102618.00;;;8.35;100.00
52949;BME280;38812;50.942;3.644;2023-02-02T09:06:15;102616.38;;;8.42;100.00
52949;BME280;38812;50.942;3.644;2023-02-02T09:08:41;102620.72;;;8.41;100.00
52949;BME280;38812;50.942;3.644;2023-02-02T09:11:12;102619.16;;;8.54;100.00
52949;BME280;38812;50.942;3.644;2023-02-02T09:13:39;102631.38;;;8.53;100.00
52949;BME280;38812;50.942;3.644;2023-02-02T09:16:06;102626.25;;;8.59;100.00
52949;BME280;38812;50.942;3.644;2023-02-02T09:18:33;102634.19;;;8.64;100.00
52949;BME280;38812;50.942;3.644;2023-02-02T09:21:00;102614.94;;;8.62;100.00
52949;BME280;38812;50.942;3.644;2023-02-02T09:23:32;102628.09;;;8.67;100.00
52949;BME280;38812;50.942;3.644;2023-02-02T09:26:08;102644.75;;;8.72;100.00
52949;BME280;38812;50.942;3.644;2023-02-02T09:28:34;102635.19;;;8.74;100.00
52949;BME280;38812;50.942;3.644;2023-02-02T09:31:01;102637.06;;;8.81;100.00
52949;BME280;38812;50.942;3.644;2023-02-02T09:33:26;102654.69;;;8.94;100.00
52949;BME280;38812;50.942;3.644;2023-02-02T09:35:52;102655.50;;;8.87;100.00
52949;BME280;38812;50.942;3.644;2023-02-02T09:38:17;102661.59;;;8.89;100.00
52949;BME280;38812;50.942;3.644;2023-02-02T09:40:43;102660.63;;;8.79;100.00
52949;BME280;38812;50.942;3.644;2023-02-02T09:45:56;102677.38;;;8.92;100.00
52949;BME280;38812;50.942;3.644;2023-02-02T09:48:41;102668.44;;;8.78;100.00
52949;BME280;38812;50.942;3.644;2023-02-02T09:51:16;102685.72;;;8.67;100.00
52949;BME280;38812;50.942;3.644;2023-02-02T09:53:55;102678.47;;;8.50;100.00
52949;BME280;38812;50.942;3.644;2023-02-02T09:56:44;102681.91;;;8.46;100.00
52949;BME280;38812;50.942;3.644;2023-02-02T09:59:18;102680.19;;;8.48;100.00
52949;BME280;38812;50.942;3.644;2023-02-02T10:01:46;102677.63;;;8.51;100.00
52949;BME280;38812;50.942;3.644;2023-02-02T10:04:18;102692.50;;;8.52;100.00
52949;BME280;38812;50.942;3.644;2023-02-02T10:06:51;102680.06;;;8.39;100.00
52949;BME280;38812;50.942;3.644;2023-02-02T10:20:36;102692.63;;;9.17;100.00
52949;BME280;38812;50.942;3.644;2023-02-02T10:23:21;102698.72;;;9.16;100.00
52949;BME280;38812;50.942;3.644;2023-02-02T10:28:42;102697.75;;;9.76;100.00
52949;BME280;38812;50.942;3.644;2023-02-02T10:31:16;102711.09;;;9.93;100.00
52949;BME280;38812;50.942;3.644;2023-02-02T10:33:50;102707.84;;;10.18;100.00
52949;BME280;38812;50.942;3.644;2023-02-02T10:36:36;102721.22;;;10.41;100.00
52949;BME280;38812;50.942;3.644;2023-02-02T10:42:22;102719.41;;;10.31;100.00
52949;BME280;38812;50.942;3.644;2023-02-02T10:44:58;102719.66;;;10.58;100.00
52949;BME280;38812;50.942;3.644;2023-02-02T10:47:27;102707.38;;;10.57;100.00
52949;BME280;38812;50.942;3.644;2023-02-02T10:50:15;102705.66;;;10.62;100.00
52949;BME280;38812;50.942;3.644;2023-02-02T10:53:01;102711.25;;;11.08;100.00
52949;BME280;38812;50.942;3.644;2023-02-02T10:55:41;102687.34;;;10.72;100.00
52949;BME280;38812;50.942;3.644;2023-02-02T11:00:46;102698.22;;;11.28;100.00
52949;BME280;38812;50.942;3.644;2023-02-02T11:03:17;102690.16;;;10.96;100.00
52949;BME280;38812;50.942;3.644;2023-02-02T11:05:44;102691.72;;;10.73;100.00
52949;BME280;38812;50.942;3.644;2023-02-02T11:08:32;102704.22;;;11.01;100.00
52949;BME280;38812;50.942;3.644;2023-02-02T11:11:18;102697.97;;;10.90;100.00
52949;BME280;38812;50.942;3.644;2023-02-02T11:13:55;102700.72;;;11.02;100.00
52949;BME280;38812;50.942;3.644;2023-02-02T11:16:25;102698.97;;;11.03;100.00
52949;BME280;38812;50.942;3.644;2023-02-02T11:18:52;102696.34;;;11.04;100.00
52949;BME280;38812;50.942;3.644;2023-02-02T11:21:31;102705.97;;;11.01;100.00
52949;BME280;38812;50.942;3.644;2023-02-02T11:24:16;102689.88;;;10.59;100.00
52949;BME280;38812;50.942;3.644;2023-02-02T11:26:51;102688.41;;;10.98;100.00
52949;BME280;38812;50.942;3.644;2023-02-02T11:29:31;102693.78;;;11.16;100.00
52949;BME280;38812;50.942;3.644;2023-02-02T11:31:57;102692.25;;;11.70;100.00
52949;BME280;38812;50.942;3.644;2023-02-02T11:34:27;102681.66;;;11.46;100.00
52949;BME280;38812;50.942;3.644;2023-02-02T11:37:30;102680.84;;;11.69;100.00
52949;BME280;38812;50.942;3.644;2023-02-02T11:39:49;102681.66;;;11.52;100.00
52949;BME280;38812;50.942;3.644;2023-02-02T11:42:18;102681.66;;;11.43;100.00
52949;BME280;38812;50.942;3.644;2023-02-02T11:44:51;102677.25;;;11.40;100.00
52949;BME280;38812;50.942;3.644;2023-02-02T11:47:24;102678.13;;;11.44;100.00
52949;BME280;38812;50.942;3.644;2023-02-02T11:49:51;102667.47;;;11.16;100.00
52949;BME280;38812;50.942;3.644;2023-02-02T11:52:20;102678.16;;;11.50;100.00
52949;BME280;38812;50.942;3.644;2023-02-02T11:54:50;102686.00;;;11.41;100.00
52949;BME280;38812;50.942;3.644;2023-02-02T11:57:18;102672.59;;;10.95;100.00
52949;BME280;38812;50.942;3.644;2023-02-02T11:59:45;102681.41;;;11.00;100.00
52949;BME280;38812;50.942;3.644;2023-02-02T12:02:23;102682.06;;;10.72;100.00
52949;BME280;38812;50.942;3.644;2023-02-02T12:05:39;102684.75;;;10.78;100.00
52949;BME280;38812;50.942;3.644;2023-02-02T12:07:42;102684.69;;;10.69;100.00
52949;BME280;38812;50.942;3.644;2023-02-02T12:10:40;102685.50;;;10.58;100.00
52949;BME280;38812;50.942;3.644;2023-02-02T12:15:56;102670.78;;;10.85;100.00
52949;BME280;38812;50.942;3.644;2023-02-02T12:26:29;102664.50;;;10.68;100.00
52949;BME280;38812;50.942;3.644;2023-02-02T12:42:39;102652.25;;;10.68;100.00
52949;BME280;38812;50.942;3.644;2023-02-02T12:51:16;102653.09;;;10.65;100.00
52949;BME280;38812;50.942;3.644;2023-02-02T12:53:56;102657.56;;;10.76;100.00
52949;BME280;38812;50.942;3.644;2023-02-02T13:05:00;102641.84;;;10.79;100.00
52949;BME280;38812;50.942;3.644;2023-02-02T13:07:57;102633.91;;;10.76;100.00
52949;BME280;38812;50.942;3.644;2023-02-02T13:10:41;102641.84;;;10.83;100.00
52949;BME280;38812;50.942;3.644;2023-02-02T13:13:15;102626.03;;;10.74;100.00
52949;BME280;38812;50.942;3.644;2023-02-02T13:15:46;102624.19;;;10.59;100.00
52949;BME280;38812;50.942;3.644;2023-02-02T13:18:39;102640.09;;;10.84;100.00
52949;BME280;38812;50.942;3.644;2023-02-02T13:21:12;102643.72;;;11.03;100.00
52949;BME280;38812;50.942;3.644;2023-02-02T13:23:52;102650.81;;;11.19;100.00
52949;BME280;38812;50.942;3.644;2023-02-02T13:26:33;102635.75;;;10.89;100.00
52949;BME280;38812;50.942;3.644;2023-02-02T13:29:07;102647.84;;;10.65;100.00
52949;BME280;38812;50.942;3.644;2023-02-02T13:31:41;102658.25;;;10.49;100.00
52949;BME280;38812;50.942;3.644;2023-02-02T13:34:14;102655.53;;;10.40;100.00
52949;BME280;38812;50.942;3.644;2023-02-02T13:36:45;102654.56;;;10.27;100.00
52949;BME280;38812;50.942;3.644;2023-02-02T13:39:21;102634.25;;;10.12;100.00
52949;BME280;38812;50.942;3.644;2023-02-02T13:41:48;102636.94;;;10.17;100.00
52949;BME280;38812;50.942;3.644;2023-02-02T13:44:31;102645.75;;;10.22;100.00
52949;BME280;38812;50.942;3.644;2023-02-02T13:47:05;102637.88;;;10.22;100.00
52949;BME280;38812;50.942;3.644;2023-02-02T13:49:49;102635.38;;;10.37;100.00
52949;BME280;38812;50.942;3.644;2023-02-02T14:00:28;102651.00;;;10.22;100.00
52949;BME280;38812;50.942;3.644;2023-02-02T14:03:01;102651.00;;;10.22;100.00
52949;BME280;38812;50.942;3.644;2023-02-02T14:13:07;102652.72;;;10.20;100.00
52949;BME280;38812;50.942;3.644;2023-02-02T14:15:54;102657.00;;;10.12;100.00
52949;BME280;38812;50.942;3.644;2023-02-02T14:34:40;102644.16;;;10.42;100.00
52949;BME280;38812;50.942;3.644;2023-02-02T14:51:15;102650.97;;;10.19;100.00
52949;BME280;38812;50.942;3.644;2023-02-02T14:53:58;102659.81;;;10.27;100.00
52949;BME280;38812;50.942;3.644;2023-02-02T14:59:03;102679.13;;;10.32;100.00
52949;BME280;38812;50.942;3.644;2023-02-02T15:01:32;102671.16;;;10.24;100.00
52949;BME280;38812;50.942;3.644;2023-02-02T15:06:49;102674.69;;;10.28;100.00
52949;BME280;38812;50.942;3.644;2023-02-02T15:20:00;102677.09;;;10.07;100.00
52949;BME280;38812;50.942;3.644;2023-02-02T15:22:34;102685.75;;;10.00;100.00
52949;BME280;38812;50.942;3.644;2023-02-02T15:25:05;102678.69;;;9.92;100.00